sensor_id;sensor_type;location;lat;lon;timestamp;temperature;humidity
13835;DHT22;6988;52.614;13.500;2023-05-29T00:01:13;13.20;99.90
13835;DHT22;6988;52.614;13.500;2023-05-29T00:06:08;13.10;99.90
13835;DHT22;6988;52.614;13.500;2023-05-29T00:11:02;13.10;99.90
13835;DHT22;6988;52.614;13.500;2023-05-29T00:15:54;13.00;99.90
13835;DHT22;6988;52.614;13.500;2023-05-29T00:20:48;12.90;99.90
13835;DHT22;6988;52.614;13.500;2023-05-29T00:25:40;12.80;99.90
13835;DHT22;6988;52.614;13.500;2023-05-29T00:30:32;12.60;99.90
13835;DHT22;6988;52.614;13.500;2023-05-29T00:35:24;12.50;99.90
13835;DHT22;6988;52.614;13.500;2023-05-29T00:40:17;12.30;99.90
13835;DHT22;6988;52.614;13.500;2023-05-29T00:45:09;12.30;99.90
13835;DHT22;6988;52.614;13.500;2023-05-29T00:50:05;12.20;99.90
13835;DHT22;6988;52.614;13.500;2023-05-29T00:54:59;12.20;99.90
13835;DHT22;6988;52.614;13.500;2023-05-29T00:59:54;12.20;99.90
13835;DHT22;6988;52.614;13.500;2023-05-29T01:04:47;12.10;99.90
13835;DHT22;6988;52.614;13.500;2023-05-29T01:09:40;12.10;99.90
13835;DHT22;6988;52.614;13.500;2023-05-29T01:20:05;12.00;99.90
13835;DHT22;6988;52.614;13.500;2023-05-29T01:25:11;11.90;99.90
13835;DHT22;6988;52.614;13.500;2023-05-29T01:30:11;11.90;99.90
13835;DHT22;6988;52.614;13.500;2023-05-29T01:35:05;11.90;99.90
13835;DHT22;6988;52.614;13.500;2023-05-29T01:39:59;11.90;99.90
13835;DHT22;6988;52.614;13.500;2023-05-29T01:44:51;11.80;99.90
13835;DHT22;6988;52.614;13.500;2023-05-29T01:49:47;11.80;99.90
13835;DHT22;6988;52.614;13.500;2023-05-29T01:54:41;11.70;99.90
13835;DHT22;6988;52.614;13.500;2023-05-29T01:59:33;11.70;99.90
13835;DHT22;6988;52.614;13.500;2023-05-29T02:04:26;11.70;99.90
13835;DHT22;6988;52.614;13.500;2023-05-29T02:09:21;11.60;99.90
13835;DHT22;6988;52.614;13.500;2023-05-29T02:14:13;11.60;99.90
13835;DHT22;6988;52.614;13.500;2023-05-29T02:19:06;11.60;99.90
13835;DHT22;6988;52.614;13.500;2023-05-29T02:23:58;11.50;99.90
13835;DHT22;6988;52.614;13.500;2023-05-29T02:28:51;11.40;99.90
13835;DHT22;6988;52.614;13.500;2023-05-29T02:33:44;11.40;99.90
13835;DHT22;6988;52.614;13.500;2023-05-29T02:38:36;11.40;99.90
13835;DHT22;6988;52.614;13.500;2023-05-29T02:43:28;11.30;99.90
13835;DHT22;6988;52.614;13.500;2023-05-29T02:48:21;11.30;99.90
13835;DHT22;6988;52.614;13.500;2023-05-29T02:53:13;11.30;99.90
13835;DHT22;6988;52.614;13.500;2023-05-29T03:02:59;11.20;99.90
13835;DHT22;6988;52.614;13.500;2023-05-29T03:07:52;11.10;99.90
13835;DHT22;6988;52.614;13.500;2023-05-29T03:12:45;11.10;99.90
13835;DHT22;6988;52.614;13.500;2023-05-29T03:17:37;11.10;99.90
13835;DHT22;6988;52.614;13.500;2023-05-29T03:22:34;11.00;99.90
13835;DHT22;6988;52.614;13.500;2023-05-29T03:27:27;11.00;99.90
13835;DHT22;6988;52.614;13.500;2023-05-29T03:32:26;11.00;99.90
13835;DHT22;6988;52.614;13.500;2023-05-29T03:37:18;10.90;99.90
13835;DHT22;6988;52.614;13.500;2023-05-29T03:42:11;11.00;99.90
13835;DHT22;6988;52.614;13.500;2023-05-29T03:47:05;11.00;99.90
13835;DHT22;6988;52.614;13.500;2023-05-29T03:51:59;11.10;99.90
13835;DHT22;6988;52.614;13.500;2023-05-29T03:56:51;11.10;99.90
13835;DHT22;6988;52.614;13.500;2023-05-29T04:01:43;11.20;99.90
13835;DHT22;6988;52.614;13.500;2023-05-29T04:06:36;11.20;99.90
13835;DHT22;6988;52.614;13.500;2023-05-29T04:11:29;11.30;99.90
13835;DHT22;6988;52.614;13.500;2023-05-29T04:16:24;11.40;99.90
13835;DHT22;6988;52.614;13.500;2023-05-29T04:21:16;11.50;99.90
13835;DHT22;6988;52.614;13.500;2023-05-29T04:26:09;11.60;99.90
13835;DHT22;6988;52.614;13.500;2023-05-29T04:31:03;11.70;99.90
13835;DHT22;6988;52.614;13.500;2023-05-29T04:35:55;11.90;99.90
13835;DHT22;6988;52.614;13.500;2023-05-29T04:40:47;12.00;99.90
13835;DHT22;6988;52.614;13.500;2023-05-29T04:45:44;12.20;99.90
13835;DHT22;6988;52.614;13.500;2023-05-29T04:50:36;12.30;99.90
13835;DHT22;6988;52.614;13.500;2023-05-29T04:55:30;12.50;99.90
13835;DHT22;6988;52.614;13.500;2023-05-29T05:00:22;12.70;99.90
13835;DHT22;6988;52.614;13.500;2023-05-29T05:05:15;12.80;99.90
13835;DHT22;6988;52.614;13.500;2023-05-29T05:10:08;12.80;99.90
13835;DHT22;6988;52.614;13.500;2023-05-29T05:15:00;13.00;99.90
13835;DHT22;6988;52.614;13.500;2023-05-29T05:19:53;13.10;99.90
13835;DHT22;6988;52.614;13.500;2023-05-29T05:24:46;13.30;99.90
13835;DHT22;6988;52.614;13.500;2023-05-29T05:29:38;13.40;99.90
13835;DHT22;6988;52.614;13.500;2023-05-29T05:34:30;13.60;99.90
13835;DHT22;6988;52.614;13.500;2023-05-29T05:39:22;13.80;99.90
13835;DHT22;6988;52.614;13.500;2023-05-29T05:44:15;13.90;99.90
13835;DHT22;6988;52.614;13.500;2023-05-29T05:49:10;14.00;99.90
13835;DHT22;6988;52.614;13.500;2023-05-29T05:54:05;14.10;99.90
13835;DHT22;6988;52.614;13.500;2023-05-29T05:58:56;14.30;99.90
13835;DHT22;6988;52.614;13.500;2023-05-29T06:03:50;14.40;99.90
13835;DHT22;6988;52.614;13.500;2023-05-29T06:08:42;14.70;99.90
13835;DHT22;6988;52.614;13.500;2023-05-29T06:13:35;15.10;99.90
13835;DHT22;6988;52.614;13.500;2023-05-29T06:18:34;15.60;99.90
13835;DHT22;6988;52.614;13.500;2023-05-29T06:23:28;15.70;99.90
13835;DHT22;6988;52.614;13.500;2023-05-29T06:28:20;16.00;99.90
13835;DHT22;6988;52.614;13.500;2023-05-29T06:33:13;16.40;99.90
13835;DHT22;6988;52.614;13.500;2023-05-29T06:38:06;16.80;99.90
13835;DHT22;6988;52.614;13.500;2023-05-29T06:43:00;17.30;99.90
13835;DHT22;6988;52.614;13.500;2023-05-29T06:48:10;17.80;99.90
13835;DHT22;6988;52.614;13.500;2023-05-29T06:53:03;18.20;99.90
13835;DHT22;6988;52.614;13.500;2023-05-29T06:58:13;18.40;99.90
13835;DHT22;6988;52.614;13.500;2023-05-29T07:03:06;18.60;99.90
13835;DHT22;6988;52.614;13.500;2023-05-29T07:07:58;19.10;99.90
13835;DHT22;6988;52.614;13.500;2023-05-29T07:12:51;19.40;99.90
13835;DHT22;6988;52.614;13.500;2023-05-29T07:17:44;19.90;99.90
13835;DHT22;6988;52.614;13.500;2023-05-29T07:22:42;20.20;99.90
13835;DHT22;6988;52.614;13.500;2023-05-29T07:27:35;20.60;99.90
13835;DHT22;6988;52.614;13.500;2023-05-29T07:32:27;20.90;99.90
13835;DHT22;6988;52.614;13.500;2023-05-29T07:37:21;20.80;99.90
13835;DHT22;6988;52.614;13.500;2023-05-29T07:42:13;20.80;99.90
13835;DHT22;6988;52.614;13.500;2023-05-29T07:47:07;20.70;99.90
13835;DHT22;6988;52.614;13.500;2023-05-29T07:52:04;20.90;99.90
13835;DHT22;6988;52.614;13.500;2023-05-29T07:56:58;21.20;99.90
13835;DHT22;6988;52.614;13.500;2023-05-29T08:01:50;21.80;99.90
13835;DHT22;6988;52.614;13.500;2023-05-29T08:07:05;22.30;99.90
13835;DHT22;6988;52.614;13.500;2023-05-29T08:11:58;22.70;99.90
13835;DHT22;6988;52.614;13.500;2023-05-29T08:16:51;22.90;99.90
13835;DHT22;6988;52.614;13.500;2023-05-29T08:21:43;23.20;99.90
13835;DHT22;6988;52.614;13.500;2023-05-29T08:26:35;23.60;98.30
13835;DHT22;6988;52.614;13.500;2023-05-29T08:31:30;24.00;98.90
13835;DHT22;6988;52.614;13.500;2023-05-29T08:36:22;24.40;97.80
13835;DHT22;6988;52.614;13.500;2023-05-29T08:41:19;24.50;97.30
13835;DHT22;6988;52.614;13.500;2023-05-29T08:46:15;24.80;97.80
13835;DHT22;6988;52.614;13.500;2023-05-29T08:51:10;25.20;97.20
13835;DHT22;6988;52.614;13.500;2023-05-29T08:56:02;25.10;95.10
13835;DHT22;6988;52.614;13.500;2023-05-29T09:00:55;25.00;93.00
13835;DHT22;6988;52.614;13.500;2023-05-29T09:05:48;25.20;93.60
13835;DHT22;6988;52.614;13.500;2023-05-29T09:10:42;25.40;92.80
13835;DHT22;6988;52.614;13.500;2023-05-29T09:15:34;25.10;93.40
13835;DHT22;6988;52.614;13.500;2023-05-29T09:20:29;25.70;93.10
13835;DHT22;6988;52.614;13.500;2023-05-29T09:25:22;25.80;92.00
13835;DHT22;6988;52.614;13.500;2023-05-29T09:30:31;26.50;92.80
13835;DHT22;6988;52.614;13.500;2023-05-29T09:35:24;27.40;90.10
13835;DHT22;6988;52.614;13.500;2023-05-29T09:40:15;27.50;87.50
13835;DHT22;6988;52.614;13.500;2023-05-29T09:45:08;27.40;84.50
13835;DHT22;6988;52.614;13.500;2023-05-29T09:50:03;27.70;83.50
13835;DHT22;6988;52.614;13.500;2023-05-29T09:54:55;27.60;83.10
13835;DHT22;6988;52.614;13.500;2023-05-29T09:59:49;27.50;78.00
13835;DHT22;6988;52.614;13.500;2023-05-29T10:04:44;27.10;79.40
13835;DHT22;6988;52.614;13.500;2023-05-29T10:09:40;27.50;77.70
13835;DHT22;6988;52.614;13.500;2023-05-29T10:14:40;27.10;75.90
13835;DHT22;6988;52.614;13.500;2023-05-29T10:19:37;26.60;76.90
13835;DHT22;6988;52.614;13.500;2023-05-29T10:24:31;26.80;75.40
13835;DHT22;6988;52.614;13.500;2023-05-29T10:29:29;26.20;75.50
13835;DHT22;6988;52.614;13.500;2023-05-29T10:34:31;25.50;75.80
13835;DHT22;6988;52.614;13.500;2023-05-29T10:39:29;25.50;79.10
13835;DHT22;6988;52.614;13.500;2023-05-29T10:44:40;25.50;77.20
13835;DHT22;6988;52.614;13.500;2023-05-29T10:49:32;25.70;78.60
13835;DHT22;6988;52.614;13.500;2023-05-29T10:54:25;26.10;74.50
13835;DHT22;6988;52.614;13.500;2023-05-29T10:59:18;26.80;75.30
13835;DHT22;6988;52.614;13.500;2023-05-29T11:04:26;27.80;73.30
13835;DHT22;6988;52.614;13.500;2023-05-29T11:09:29;28.80;70.70
13835;DHT22;6988;52.614;13.500;2023-05-29T11:14:21;27.70;70.20
13835;DHT22;6988;52.614;13.500;2023-05-29T11:19:14;26.70;71.50
13835;DHT22;6988;52.614;13.500;2023-05-29T11:24:07;26.80;69.70
13835;DHT22;6988;52.614;13.500;2023-05-29T11:29:10;26.80;70.10
13835;DHT22;6988;52.614;13.500;2023-05-29T11:34:03;26.40;73.10
13835;DHT22;6988;52.614;13.500;2023-05-29T11:38:56;25.90;74.00
13835;DHT22;6988;52.614;13.500;2023-05-29T11:44:00;25.70;73.60
13835;DHT22;6988;52.614;13.500;2023-05-29T11:48:52;25.50;73.30
13835;DHT22;6988;52.614;13.500;2023-05-29T11:53:47;25.00;75.40
13835;DHT22;6988;52.614;13.500;2023-05-29T11:58:40;25.50;76.30
13835;DHT22;6988;52.614;13.500;2023-05-29T12:03:39;26.40;73.00
13835;DHT22;6988;52.614;13.500;2023-05-29T12:08:31;27.00;75.20
13835;DHT22;6988;52.614;13.500;2023-05-29T12:13:23;27.50;71.30
13835;DHT22;6988;52.614;13.500;2023-05-29T12:18:15;28.20;68.30
13835;DHT22;6988;52.614;13.500;2023-05-29T12:23:08;28.30;66.00
13835;DHT22;6988;52.614;13.500;2023-05-29T12:28:02;28.10;68.30
13835;DHT22;6988;52.614;13.500;2023-05-29T12:32:54;27.90;67.80
13835;DHT22;6988;52.614;13.500;2023-05-29T12:37:47;27.30;68.20
13835;DHT22;6988;52.614;13.500;2023-05-29T12:42:42;26.30;69.90
13835;DHT22;6988;52.614;13.500;2023-05-29T12:47:34;26.40;71.50
13835;DHT22;6988;52.614;13.500;2023-05-29T12:52:25;26.90;67.80
13835;DHT22;6988;52.614;13.500;2023-05-29T12:57:17;27.30;68.60
13835;DHT22;6988;52.614;13.500;2023-05-29T13:02:11;27.60;67.60
13835;DHT22;6988;52.614;13.500;2023-05-29T13:07:03;28.00;66.90
13835;DHT22;6988;52.614;13.500;2023-05-29T13:11:55;28.20;68.70
13835;DHT22;6988;52.614;13.500;2023-05-29T13:16:48;28.40;66.80
13835;DHT22;6988;52.614;13.500;2023-05-29T13:21:41;28.70;65.80
13835;DHT22;6988;52.614;13.500;2023-05-29T13:26:38;28.70;64.50
13835;DHT22;6988;52.614;13.500;2023-05-29T13:31:30;28.40;65.00
13835;DHT22;6988;52.614;13.500;2023-05-29T13:36:21;28.30;65.50
13835;DHT22;6988;52.614;13.500;2023-05-29T13:41:14;28.60;63.60
13835;DHT22;6988;52.614;13.500;2023-05-29T13:46:06;28.50;63.50
13835;DHT22;6988;52.614;13.500;2023-05-29T13:50:58;28.60;63.10
13835;DHT22;6988;52.614;13.500;2023-05-29T13:55:50;28.90;61.30
13835;DHT22;6988;52.614;13.500;2023-05-29T14:00:43;29.40;63.70
13835;DHT22;6988;52.614;13.500;2023-05-29T14:05:35;29.60;60.20
13835;DHT22;6988;52.614;13.500;2023-05-29T14:10:27;29.50;60.10
13835;DHT22;6988;52.614;13.500;2023-05-29T14:15:19;29.30;60.00
13835;DHT22;6988;52.614;13.500;2023-05-29T14:20:12;28.80;59.60
13835;DHT22;6988;52.614;13.500;2023-05-29T14:25:04;28.60;60.80
13835;DHT22;6988;52.614;13.500;2023-05-29T14:29:56;28.50;60.80
13835;DHT22;6988;52.614;13.500;2023-05-29T14:34:48;28.40;60.90
13835;DHT22;6988;52.614;13.500;2023-05-29T14:39:41;28.50;59.50
13835;DHT22;6988;52.614;13.500;2023-05-29T14:44:33;28.40;60.30
13835;DHT22;6988;52.614;13.500;2023-05-29T14:49:25;28.60;59.10
13835;DHT22;6988;52.614;13.500;2023-05-29T14:54:20;28.20;59.10
13835;DHT22;6988;52.614;13.500;2023-05-29T14:59:13;28.10;59.50
13835;DHT22;6988;52.614;13.500;2023-05-29T15:04:05;28.00;61.10
13835;DHT22;6988;52.614;13.500;2023-05-29T15:08:57;27.80;61.10
13835;DHT22;6988;52.614;13.500;2023-05-29T15:13:50;27.30;59.00
13835;DHT22;6988;52.614;13.500;2023-05-29T15:18:43;27.10;62.00
13835;DHT22;6988;52.614;13.500;2023-05-29T15:23:35;27.00;60.50
13835;DHT22;6988;52.614;13.500;2023-05-29T15:28:29;26.80;59.80
13835;DHT22;6988;52.614;13.500;2023-05-29T15:33:21;26.80;63.50
13835;DHT22;6988;52.614;13.500;2023-05-29T15:38:15;26.50;61.30
13835;DHT22;6988;52.614;13.500;2023-05-29T15:43:07;26.20;63.00
13835;DHT22;6988;52.614;13.500;2023-05-29T15:47:59;26.20;62.50
13835;DHT22;6988;52.614;13.500;2023-05-29T15:52:51;26.10;64.10
13835;DHT22;6988;52.614;13.500;2023-05-29T15:57:44;25.90;63.50
13835;DHT22;6988;52.614;13.500;2023-05-29T16:02:38;26.00;63.10
13835;DHT22;6988;52.614;13.500;2023-05-29T16:07:30;25.70;63.40
13835;DHT22;6988;52.614;13.500;2023-05-29T16:12:22;25.30;63.30
13835;DHT22;6988;52.614;13.500;2023-05-29T16:17:16;24.90;65.90
13835;DHT22;6988;52.614;13.500;2023-05-29T16:22:08;24.50;65.80
13835;DHT22;6988;52.614;13.500;2023-05-29T16:27:00;24.20;66.60
13835;DHT22;6988;52.614;13.500;2023-05-29T16:31:54;23.70;67.30
13835;DHT22;6988;52.614;13.500;2023-05-29T16:36:47;23.70;67.50
13835;DHT22;6988;52.614;13.500;2023-05-29T16:41:39;23.60;67.40
13835;DHT22;6988;52.614;13.500;2023-05-29T16:46:31;23.60;67.00
13835;DHT22;6988;52.614;13.500;2023-05-29T16:51:23;23.40;68.20
13835;DHT22;6988;52.614;13.500;2023-05-29T16:56:17;23.10;66.20
13835;DHT22;6988;52.614;13.500;2023-05-29T17:01:09;23.00;67.60
13835;DHT22;6988;52.614;13.500;2023-05-29T17:06:01;22.80;67.00
13835;DHT22;6988;52.614;13.500;2023-05-29T17:10:53;22.60;65.50
13835;DHT22;6988;52.614;13.500;2023-05-29T17:15:46;22.30;65.30
13835;DHT22;6988;52.614;13.500;2023-05-29T17:20:38;22.10;66.50
13835;DHT22;6988;52.614;13.500;2023-05-29T17:25:30;22.00;65.90
13835;DHT22;6988;52.614;13.500;2023-05-29T17:30:21;22.00;65.90
13835;DHT22;6988;52.614;13.500;2023-05-29T17:35:16;22.00;66.00
13835;DHT22;6988;52.614;13.500;2023-05-29T17:40:09;21.80;67.40
13835;DHT22;6988;52.614;13.500;2023-05-29T17:45:04;21.50;68.60
13835;DHT22;6988;52.614;13.500;2023-05-29T17:49:58;21.30;70.70
13835;DHT22;6988;52.614;13.500;2023-05-29T17:54:51;21.00;77.90
13835;DHT22;6988;52.614;13.500;2023-05-29T17:59:43;20.50;81.50
13835;DHT22;6988;52.614;13.500;2023-05-29T18:04:35;20.10;84.60
13835;DHT22;6988;52.614;13.500;2023-05-29T18:09:27;19.60;87.80
13835;DHT22;6988;52.614;13.500;2023-05-29T18:14:20;19.30;90.10
13835;DHT22;6988;52.614;13.500;2023-05-29T18:19:13;18.90;89.60
13835;DHT22;6988;52.614;13.500;2023-05-29T18:24:05;18.60;91.20
13835;DHT22;6988;52.614;13.500;2023-05-29T18:28:58;18.40;92.70
13835;DHT22;6988;52.614;13.500;2023-05-29T18:33:53;18.10;93.20
13835;DHT22;6988;52.614;13.500;2023-05-29T18:38:45;17.90;93.30
13835;DHT22;6988;52.614;13.500;2023-05-29T18:43:37;17.60;91.70
13835;DHT22;6988;52.614;13.500;2023-05-29T18:48:29;17.40;92.50
13835;DHT22;6988;52.614;13.500;2023-05-29T18:53:23;17.10;92.70
13835;DHT22;6988;52.614;13.500;2023-05-29T18:58:15;17.00;93.30
13835;DHT22;6988;52.614;13.500;2023-05-29T19:03:06;16.80;95.40
13835;DHT22;6988;52.614;13.500;2023-05-29T19:07:59;16.50;98.10
13835;DHT22;6988;52.614;13.500;2023-05-29T19:12:56;16.30;98.40
13835;DHT22;6988;52.614;13.500;2023-05-29T19:17:48;16.20;96.10
13835;DHT22;6988;52.614;13.500;2023-05-29T19:22:40;16.10;98.20
13835;DHT22;6988;52.614;13.500;2023-05-29T19:27:32;16.00;97.50
13835;DHT22;6988;52.614;13.500;2023-05-29T19:32:25;15.90;99.90
13835;DHT22;6988;52.614;13.500;2023-05-29T19:37:18;15.70;99.90
13835;DHT22;6988;52.614;13.500;2023-05-29T19:42:10;15.50;99.90
13835;DHT22;6988;52.614;13.500;2023-05-29T19:47:01;15.40;99.90
13835;DHT22;6988;52.614;13.500;2023-05-29T19:51:55;15.40;99.70
13835;DHT22;6988;52.614;13.500;2023-05-29T19:56:48;15.30;99.80
13835;DHT22;6988;52.614;13.500;2023-05-29T20:01:41;15.30;99.90
13835;DHT22;6988;52.614;13.500;2023-05-29T20:06:34;15.20;99.90
13835;DHT22;6988;52.614;13.500;2023-05-29T20:11:28;15.00;99.90
13835;DHT22;6988;52.614;13.500;2023-05-29T20:16:20;14.90;99.90
13835;DHT22;6988;52.614;13.500;2023-05-29T20:21:12;14.80;99.90
13835;DHT22;6988;52.614;13.500;2023-05-29T20:26:04;14.90;99.90
13835;DHT22;6988;52.614;13.500;2023-05-29T20:30:57;14.80;99.90
13835;DHT22;6988;52.614;13.500;2023-05-29T20:35:49;14.80;99.90
13835;DHT22;6988;52.614;13.500;2023-05-29T20:40:41;14.70;99.90
13835;DHT22;6988;52.614;13.500;2023-05-29T20:45:34;14.60;99.90
13835;DHT22;6988;52.614;13.500;2023-05-29T20:50:28;14.50;99.90
13835;DHT22;6988;52.614;13.500;2023-05-29T20:55:20;14.40;99.90
13835;DHT22;6988;52.614;13.500;2023-05-29T21:00:12;14.30;99.90
13835;DHT22;6988;52.614;13.500;2023-05-29T21:05:05;14.20;99.90
13835;DHT22;6988;52.614;13.500;2023-05-29T21:10:01;14.20;99.90
13835;DHT22;6988;52.614;13.500;2023-05-29T21:14:53;14.10;99.90
13835;DHT22;6988;52.614;13.500;2023-05-29T21:19:45;14.00;99.90
13835;DHT22;6988;52.614;13.500;2023-05-29T21:24:37;13.90;99.90
13835;DHT22;6988;52.614;13.500;2023-05-29T21:29:31;13.80;99.90
13835;DHT22;6988;52.614;13.500;2023-05-29T21:34:22;13.80;99.90
13835;DHT22;6988;52.614;13.500;2023-05-29T21:39:14;13.80;99.90
13835;DHT22;6988;52.614;13.500;2023-05-29T21:44:07;13.70;99.90
13835;DHT22;6988;52.614;13.500;2023-05-29T22:04:15;13.30;99.90
13835;DHT22;6988;52.614;13.500;2023-05-29T22:09:08;13.20;99.90
13835;DHT22;6988;52.614;13.500;2023-05-29T22:14:03;13.10;99.90
13835;DHT22;6988;52.614;13.500;2023-05-29T22:18:55;13.00;99.90
13835;DHT22;6988;52.614;13.500;2023-05-29T22:23:49;13.00;99.90
13835;DHT22;6988;52.614;13.500;2023-05-29T22:28:41;12.90;99.90
13835;DHT22;6988;52.614;13.500;2023-05-29T22:33:33;12.90;99.90
13835;DHT22;6988;52.614;13.500;2023-05-29T22:38:25;12.80;99.90
13835;DHT22;6988;52.614;13.500;2023-05-29T22:43:18;12.70;99.90
13835;DHT22;6988;52.614;13.500;2023-05-29T22:48:12;12.60;99.90
13835;DHT22;6988;52.614;13.500;2023-05-29T22:53:07;12.50;99.90
13835;DHT22;6988;52.614;13.500;2023-05-29T22:57:59;12.40;99.90
13835;DHT22;6988;52.614;13.500;2023-05-29T23:02:52;12.20;99.90
13835;DHT22;6988;52.614;13.500;2023-05-29T23:07:44;12.10;99.90
13835;DHT22;6988;52.614;13.500;2023-05-29T23:12:37;12.00;99.90
13835;DHT22;6988;52.614;13.500;2023-05-29T23:17:30;12.00;99.90
13835;DHT22;6988;52.614;13.500;2023-05-29T23:22:23;11.90;99.90
13835;DHT22;6988;52.614;13.500;2023-05-29T23:27:15;11.80;99.90
13835;DHT22;6988;52.614;13.500;2023-05-29T23:32:07;11.80;99.90
13835;DHT22;6988;52.614;13.500;2023-05-29T23:36:59;11.80;99.90
13835;DHT22;6988;52.614;13.500;2023-05-29T23:41:52;11.70;99.90
13835;DHT22;6988;52.614;13.500;2023-05-29T23:46:44;11.60;99.90
13835;DHT22;6988;52.614;13.500;2023-05-29T23:51:36;11.50;99.90
13835;DHT22;6988;52.614;13.500;2023-05-29T23:56:28;11.40;99.90
